Portada
METAR-TAF:

METAR-TAF

Aeroports :

Talara, Perú

latitud: 04-34S, longitud: 081-15W, altitud: 85 m

Observació

L'informe es va fer fa 39 minuts, a les 17:00 UTC
Vent 10 kt del Sud
Temperatura 31°C
Humitat 49%
Pressió 1011 hPa
Visibilitat 10 km o més
Escasses núvols a una alçada de 2000 ft

METAR: SPYL 241700Z 19010KT 9999 FEW020 31/19 Q1011 RMK BIRD HAZARD RWY 17/35 PP000

Hora: 12:39 (17:39 UTC)

Pronòstic

L'informe es va fer fa 39 minuts, a les 17:00 UTC
Pronòstic vàlid del 24 a les 18 UTC al 25 a les 18 UTC
Vent 10 kt del Sud
Visibilitat 10 km o més
Escasses núvols a una alçada de 2000 ft
Evolucionant progressivament
l' 24 a les 23 UTC al 25 a les 01 UTC
Vent 12 kt del Sud-Oest
Núvols disperses a una alçada de 4000 ft
Temporalment
l' 25 a les 12 UTC al 25 a les 14 UTC
Cel ennuvolat a una alçada de 5000 ft

TAF: SPYL 241700Z 2418/2518 19010KT 9999 FEW020 TX32/2419Z TN20/2511Z BECMG 2423/2501 22012KT SCT040 TEMPO 2512/2514 BKN050

Observacions i pronòstics meteorològics de més de 4000 aeroports (METAR i TAF).

Les estacions disponibles són els punts grocs i vermells al mapa.

Posi el ratolí al punt desitjat per veure el nom de l'estació.

Feu clic per veure les observacions i els pronòstics meteorològics.

Per canviar el mapa: feu clic els botons verds amb una creu de color negre per apropar; al botó verd amb un guió per allunyar la imatge; o en les fletxes verdes per a mapes adjacents.


METAR-TAF: